createdAt,value
2019-02-14T00:00:56.968Z,4.35
2019-02-14T00:03:26.661Z,5.47
2019-02-14T00:05:56.289Z,7.00
2019-02-14T00:08:28.426Z,4.50
2019-02-14T00:11:07.591Z,5.15
2019-02-14T00:13:38.820Z,5.40
2019-02-14T00:16:08.481Z,4.50
2019-02-14T00:18:38.110Z,4.42
2019-02-14T00:21:07.743Z,4.20
2019-02-14T00:23:38.977Z,5.03
2019-02-14T00:26:08.580Z,4.70
2019-02-14T00:28:38.188Z,6.30
2019-02-14T00:31:07.810Z,4.83
2019-02-14T00:33:37.426Z,4.20
2019-02-14T00:36:09.388Z,4.10
2019-02-14T00:38:38.997Z,4.05
2019-02-14T00:41:08.638Z,4.42
2019-02-14T00:43:38.337Z,6.30
2019-02-14T00:46:07.978Z,4.87
2019-02-14T00:48:39.644Z,7.90
2019-02-14T00:51:09.249Z,4.83
2019-02-14T00:53:38.947Z,5.70
2019-02-14T00:56:08.559Z,4.12
2019-02-14T00:58:38.175Z,6.20
2019-02-14T01:01:07.808Z,6.28
2019-02-14T01:03:37.418Z,7.50
2019-02-14T01:06:13.602Z,4.37
2019-02-14T01:08:43.232Z,5.10
2019-02-14T01:11:14.478Z,5.33
2019-02-14T01:13:47.545Z,7.62
2019-02-14T01:16:17.246Z,5.80
2019-02-14T01:18:46.843Z,6.90
2019-02-14T01:21:16.452Z,6.85
2019-02-14T01:23:48.672Z,7.50
2019-02-14T01:26:22.964Z,7.97
2019-02-14T01:28:52.592Z,6.35
2019-02-14T01:31:22.187Z,5.00
2019-02-14T01:33:51.876Z,6.12
2019-02-14T01:36:23.136Z,4.03
2019-02-14T01:38:52.758Z,6.60
2019-02-14T01:41:22.359Z,7.22
2019-02-14T01:43:51.983Z,6.80
2019-02-14T01:46:21.623Z,6.75
2019-02-14T01:48:51.252Z,5.92
2019-02-14T01:51:20.868Z,6.67
2019-02-14T01:53:50.494Z,5.87
2019-02-14T01:56:20.116Z,5.33
2019-02-14T01:58:49.742Z,5.17
2019-02-14T02:01:20.696Z,5.40
2019-02-14T02:03:52.248Z,7.17
2019-02-14T02:06:21.863Z,7.55
2019-02-14T02:08:51.561Z,5.33
2019-02-14T02:11:21.186Z,6.60
2019-02-14T02:13:53.434Z,5.67
2019-02-14T02:16:23.054Z,5.97
2019-02-14T02:18:52.652Z,5.50
2019-02-14T02:21:24.087Z,5.17
2019-02-14T02:23:53.863Z,5.45
2019-02-14T02:26:23.489Z,4.53
2019-02-14T02:28:53.110Z,6.03
2019-02-14T02:31:27.610Z,5.40
2019-02-14T02:34:01.757Z,5.85
2019-02-14T02:36:31.465Z,6.60
2019-02-14T02:39:01.098Z,6.15
2019-02-14T02:41:33.300Z,4.60
2019-02-14T02:44:09.078Z,8.53
2019-02-14T02:46:41.554Z,5.75
2019-02-14T02:49:11.176Z,5.45
2019-02-14T02:51:42.996Z,6.95
2019-02-14T02:54:15.685Z,7.10
2019-02-14T02:56:45.318Z,6.00
2019-02-14T02:59:14.950Z,4.80
2019-02-14T03:01:44.544Z,5.40
2019-02-14T03:04:16.832Z,5.15
2019-02-14T03:06:46.474Z,4.20
2019-02-14T03:09:17.714Z,5.55
2019-02-14T03:11:47.331Z,6.55
2019-02-14T03:14:16.974Z,6.80
2019-02-14T03:17:05.864Z,5.55
2019-02-14T03:19:37.674Z,6.55
2019-02-14T03:22:07.298Z,5.75
2019-02-14T03:24:36.911Z,5.28
2019-02-14T03:27:08.251Z,6.40
2019-02-14T03:29:42.360Z,4.65
2019-02-14T03:32:12.904Z,6.05
2019-02-14T03:34:42.542Z,7.87
2019-02-14T03:37:12.175Z,6.97
2019-02-14T03:39:41.799Z,5.30
2019-02-14T03:42:11.421Z,5.47
2019-02-14T03:44:41.046Z,6.60
2019-02-14T03:47:10.665Z,8.33
2019-02-14T03:49:45.388Z,6.67
2019-02-14T03:52:15.014Z,7.05
2019-02-14T03:54:44.638Z,6.60
2019-02-14T03:57:15.562Z,7.92
2019-02-14T03:59:45.186Z,5.42
2019-02-14T04:02:16.411Z,9.35
2019-02-14T04:04:46.024Z,6.78
2019-02-14T04:07:15.637Z,5.30
2019-02-14T04:09:51.219Z,4.58
2019-02-14T04:12:24.111Z,4.85
2019-02-14T04:14:53.729Z,5.33
2019-02-14T04:17:23.325Z,4.70
2019-02-14T04:19:55.271Z,5.65
2019-02-14T04:22:24.911Z,5.60
2019-02-14T04:24:54.520Z,6.35
2019-02-14T04:27:24.127Z,6.25
2019-02-14T04:29:56.427Z,5.22
2019-02-14T04:32:27.712Z,6.17
2019-02-14T04:34:57.331Z,6.17
2019-02-14T04:37:26.940Z,5.37
2019-02-14T04:39:57.760Z,5.87
2019-02-14T04:42:29.742Z,6.53
2019-02-14T04:44:59.367Z,6.40
2019-02-14T04:47:32.296Z,4.72
2019-02-14T04:50:03.891Z,5.17
2019-02-14T04:52:33.543Z,4.17
2019-02-14T04:55:03.134Z,4.20
2019-02-14T04:57:35.515Z,5.22
2019-02-14T05:00:26.046Z,5.90
2019-02-14T05:02:55.644Z,5.53
2019-02-14T05:05:25.355Z,4.78
2019-02-14T05:07:54.980Z,4.28
2019-02-14T05:10:24.610Z,5.12
2019-02-14T05:12:54.237Z,6.95
2019-02-14T05:15:23.839Z,4.58
2019-02-14T05:17:53.472Z,6.78
2019-02-14T05:20:24.364Z,6.08
2019-02-14T05:22:59.727Z,5.87
2019-02-14T05:25:30.639Z,3.92
2019-02-14T05:28:00.263Z,6.47
2019-02-14T05:30:29.932Z,6.15
2019-02-14T05:32:59.554Z,4.50
2019-02-14T05:35:29.183Z,6.75
2019-02-14T05:37:58.807Z,5.87
2019-02-14T05:40:28.421Z,4.70
2019-02-14T05:42:59.015Z,5.28
2019-02-14T05:45:28.638Z,5.80
2019-02-14T05:47:58.253Z,7.80
2019-02-14T05:50:31.778Z,5.25
2019-02-14T05:53:04.875Z,6.08
2019-02-14T05:55:34.484Z,5.37
2019-02-14T05:58:04.176Z,5.70
2019-02-14T06:00:33.789Z,4.15
2019-02-14T06:03:05.248Z,5.80
2019-02-14T06:05:35.467Z,5.22
2019-02-14T06:08:05.073Z,5.65
2019-02-14T06:10:37.110Z,5.80
2019-02-14T06:13:06.791Z,5.33
2019-02-14T06:15:36.404Z,6.28
2019-02-14T06:18:06.011Z,5.92
2019-02-14T06:20:37.436Z,5.20
2019-02-14T06:23:07.059Z,5.53
2019-02-14T06:25:39.330Z,5.40
2019-02-14T06:28:08.999Z,5.20
2019-02-14T06:30:38.625Z,4.97
2019-02-14T06:33:08.243Z,6.83
2019-02-14T06:35:37.848Z,5.05
2019-02-14T06:38:10.120Z,4.85
2019-02-14T06:40:39.767Z,5.20
2019-02-14T06:43:11.022Z,5.62
2019-02-14T06:45:40.627Z,6.55
2019-02-14T06:48:11.478Z,5.75
2019-02-14T06:50:41.114Z,5.55
2019-02-14T06:53:10.748Z,5.47
2019-02-14T06:55:40.384Z,7.25
2019-02-14T06:58:10.008Z,6.83
2019-02-14T07:00:41.264Z,7.67
2019-02-14T07:03:10.972Z,8.10
2019-02-14T07:05:40.718Z,5.90
2019-02-14T07:08:10.437Z,5.83
2019-02-14T07:10:40.081Z,7.28
2019-02-14T07:13:09.717Z,6.40
2019-02-14T07:15:39.393Z,5.60
2019-02-14T07:18:09.023Z,6.67
2019-02-14T07:20:41.320Z,5.67
2019-02-14T07:23:10.975Z,6.12
2019-02-14T07:25:42.483Z,6.28
2019-02-14T07:28:12.152Z,5.28
2019-02-14T07:30:41.840Z,6.10
2019-02-14T07:33:11.946Z,4.50
2019-02-14T07:35:41.570Z,6.10
2019-02-14T07:38:11.199Z,5.97
2019-02-14T07:40:40.824Z,5.30
2019-02-14T07:43:10.443Z,5.83
2019-02-14T07:45:41.306Z,7.20
2019-02-14T07:48:13.146Z,6.05
2019-02-14T07:50:42.782Z,5.50
2019-02-14T07:53:12.411Z,6.42
2019-02-14T07:55:42.122Z,6.37
2019-02-14T07:58:11.854Z,6.47
2019-02-14T08:00:44.121Z,5.78
2019-02-14T08:03:13.769Z,6.70
2019-02-14T08:05:43.461Z,4.67
2019-02-14T08:08:15.705Z,6.50
2019-02-14T08:10:45.392Z,5.03
2019-02-14T08:13:15.033Z,6.75
2019-02-14T08:15:45.794Z,5.45
2019-02-14T08:18:18.317Z,6.05
2019-02-14T08:20:48.056Z,5.12
2019-02-14T08:23:18.458Z,6.70
2019-02-14T08:25:48.168Z,6.47
2019-02-14T08:28:17.860Z,6.97
2019-02-14T08:30:50.020Z,4.50
2019-02-14T08:33:28.702Z,4.85
2019-02-14T08:36:00.644Z,5.45
2019-02-14T08:38:30.318Z,4.55
2019-02-14T08:40:59.979Z,4.95
2019-02-14T08:43:29.632Z,5.95
2019-02-14T08:45:59.290Z,4.60
2019-02-14T08:48:28.936Z,4.83
2019-02-14T08:50:58.632Z,3.95
2019-02-14T08:53:28.308Z,3.85
2019-02-14T08:55:57.954Z,5.95
2019-02-14T08:58:27.571Z,5.00
2019-02-14T09:00:57.275Z,3.87
2019-02-14T09:03:26.884Z,5.00
2019-02-14T09:05:56.533Z,4.30
2019-02-14T09:08:26.256Z,6.05
2019-02-14T09:10:55.878Z,3.95
2019-02-14T09:13:25.498Z,6.55
2019-02-14T09:15:55.114Z,5.10
2019-02-14T09:18:26.590Z,4.25
2019-02-14T09:20:56.238Z,4.92
2019-02-14T09:23:27.485Z,4.25
2019-02-14T09:25:57.114Z,4.65
2019-02-14T09:28:26.729Z,3.35
2019-02-14T09:30:58.694Z,5.97
2019-02-14T09:33:28.348Z,4.70
2019-02-14T09:35:57.978Z,3.05
2019-02-14T09:38:29.742Z,4.00
2019-02-14T09:41:02.107Z,6.22
2019-02-14T09:43:31.814Z,4.28
2019-02-14T09:46:01.448Z,8.10
2019-02-14T09:48:31.047Z,16.48
2019-02-14T09:51:02.959Z,39.50
2019-02-14T09:53:32.605Z,75.00
2019-02-14T09:56:02.244Z,109.83
2019-02-14T09:58:34.033Z,143.55
2019-02-14T10:01:04.764Z,158.97
2019-02-14T10:03:35.544Z,184.95
2019-02-14T10:06:05.192Z,199.50
2019-02-14T10:08:37.983Z,197.43
2019-02-14T10:11:07.729Z,183.40
2019-02-14T10:13:49.336Z,168.85
2019-02-14T10:16:18.971Z,178.68
2019-02-14T10:18:48.611Z,176.10
2019-02-14T10:21:20.747Z,167.50
2019-02-14T10:23:53.239Z,180.05
2019-02-14T10:26:22.882Z,155.67
2019-02-14T10:28:52.547Z,168.87
2019-02-14T10:31:22.257Z,160.55
2019-02-14T10:33:51.879Z,163.68
2019-02-14T10:36:21.521Z,154.30
2019-02-14T10:38:51.154Z,155.37
2019-02-14T10:41:20.784Z,148.47
2019-02-14T10:43:50.414Z,147.07
2019-02-14T10:46:20.144Z,165.35
2019-02-14T10:48:49.800Z,149.72
2019-02-14T10:51:19.516Z,141.60
2019-02-14T10:53:49.138Z,133.85
2019-02-14T10:56:18.789Z,135.97
2019-02-14T10:58:53.406Z,138.72
2019-02-14T11:01:23.127Z,141.15
2019-02-14T11:03:52.830Z,138.90
2019-02-14T11:06:22.463Z,136.32
2019-02-14T11:08:52.192Z,138.82
2019-02-14T11:11:21.834Z,124.35
2019-02-14T11:13:51.523Z,116.25
2019-02-14T11:16:21.193Z,126.67
2019-02-14T11:18:51.874Z,120.35
2019-02-14T11:21:21.568Z,129.47
2019-02-14T11:23:51.784Z,130.20
2019-02-14T11:26:21.424Z,120.57
2019-02-14T11:28:51.102Z,120.92
2019-02-14T11:31:20.735Z,112.20
2019-02-14T11:33:50.364Z,118.45
2019-02-14T11:36:20.002Z,110.88
2019-02-14T11:38:52.620Z,108.90
2019-02-14T11:41:22.248Z,104.38
2019-02-14T11:43:55.908Z,111.85
2019-02-14T11:46:25.548Z,107.25
2019-02-14T11:48:55.209Z,108.35
2019-02-14T11:51:24.857Z,97.80
2019-02-14T11:53:54.493Z,100.10
2019-02-14T11:56:24.134Z,101.50
2019-02-14T11:58:55.600Z,95.65
2019-02-14T12:01:25.225Z,91.70
2019-02-14T12:03:54.844Z,40.85
2019-02-14T12:06:24.464Z,32.50
2019-02-14T12:09:00.096Z,56.30
2019-02-14T12:11:25.491Z,71.72
2019-02-14T12:13:55.130Z,70.15
2019-02-14T12:16:24.762Z,63.13
2019-02-14T12:18:54.506Z,64.12
2019-02-14T12:21:24.135Z,66.33
2019-02-14T12:23:55.574Z,68.42
2019-02-14T12:26:25.199Z,64.95
2019-02-14T12:28:55.004Z,65.90
2019-02-14T12:31:24.646Z,63.65
2019-02-14T12:33:54.343Z,57.58
2019-02-14T12:36:24.629Z,65.42
2019-02-14T12:38:54.259Z,53.83
2019-02-14T12:41:23.886Z,66.40
2019-02-14T12:43:53.518Z,58.05
2019-02-14T12:46:23.159Z,54.70
2019-02-14T12:48:54.009Z,44.27
2019-02-14T12:51:23.638Z,46.53
2019-02-14T12:53:53.284Z,46.08
2019-02-14T12:56:22.903Z,46.35
2019-02-14T12:58:52.528Z,50.88
2019-02-14T13:01:23.790Z,47.80
2019-02-14T13:03:53.451Z,43.80
2019-02-14T13:06:24.169Z,42.73
2019-02-14T13:08:59.848Z,47.23
2019-02-14T13:11:33.435Z,42.78
2019-02-14T13:14:03.054Z,39.40
2019-02-14T13:16:32.676Z,38.17
2019-02-14T13:19:02.288Z,34.75
2019-02-14T13:21:31.997Z,36.17
2019-02-14T13:24:01.638Z,35.73
2019-02-14T13:26:31.423Z,34.60
2019-02-14T13:29:01.046Z,34.03
2019-02-14T13:31:32.431Z,35.13
2019-02-14T13:34:02.218Z,34.10
2019-02-14T13:36:34.479Z,33.78
2019-02-14T13:39:09.268Z,33.08
2019-02-14T13:41:38.884Z,32.40
2019-02-14T13:44:08.535Z,32.53
2019-02-14T13:46:38.166Z,26.15
2019-02-14T13:49:07.789Z,29.37
2019-02-14T13:51:37.413Z,31.77
2019-02-14T13:54:09.694Z,43.95
2019-02-14T13:56:43.944Z,25.92
2019-02-14T13:59:13.563Z,29.02
2019-02-14T14:01:43.200Z,28.83
2019-02-14T14:04:12.827Z,24.72
2019-02-14T14:06:42.444Z,29.05
2019-02-14T14:09:13.047Z,25.15
2019-02-14T14:11:42.659Z,27.67
2019-02-14T14:14:17.253Z,26.57
2019-02-14T14:16:54.515Z,25.35
2019-02-14T14:19:24.419Z,27.60
2019-02-14T14:21:54.054Z,27.77
2019-02-14T14:24:23.686Z,27.10
2019-02-14T14:26:55.848Z,27.58
2019-02-14T14:29:25.483Z,47.08
2019-02-14T14:31:55.098Z,26.75
2019-02-14T14:34:27.482Z,24.45
2019-02-14T14:37:01.697Z,24.98
2019-02-14T14:39:31.335Z,21.00
2019-02-14T14:42:01.632Z,23.45
2019-02-14T14:44:35.782Z,24.98
2019-02-14T14:47:11.092Z,21.27
2019-02-14T14:49:42.595Z,26.23
2019-02-14T14:52:12.220Z,25.17
2019-02-14T14:54:41.831Z,21.93
2019-02-14T14:57:12.815Z,22.48
2019-02-14T14:59:42.446Z,23.30
2019-02-14T15:02:12.082Z,22.37
2019-02-14T15:04:41.717Z,24.10
2019-02-14T15:07:11.337Z,19.98
2019-02-14T15:09:42.702Z,20.55
2019-02-14T15:12:12.348Z,22.25
2019-02-14T15:14:41.975Z,22.30
2019-02-14T15:17:14.908Z,19.40
2019-02-14T15:19:44.573Z,23.85
2019-02-14T15:22:15.204Z,23.05
2019-02-14T15:24:44.912Z,20.90
2019-02-14T15:27:14.637Z,20.85
2019-02-14T15:29:45.604Z,20.88
2019-02-14T15:32:15.320Z,19.67
2019-02-14T15:34:44.950Z,21.90
2019-02-14T15:37:17.969Z,20.70
2019-02-14T15:39:47.729Z,17.82
2019-02-14T15:42:17.359Z,19.77
2019-02-14T15:44:47.108Z,18.75
2019-02-14T15:47:16.744Z,18.45
2019-02-14T15:49:46.865Z,18.73
2019-02-14T15:52:17.740Z,15.23
2019-02-14T15:54:47.380Z,15.55
2019-02-14T15:57:18.636Z,14.43
2019-02-14T15:59:48.371Z,18.02
2019-02-14T16:02:19.243Z,15.68
2019-02-14T16:04:50.661Z,15.30
2019-02-14T16:07:20.259Z,20.60
2019-02-14T16:09:51.234Z,17.55
2019-02-14T16:12:21.849Z,15.63
2019-02-14T16:14:51.684Z,16.15
2019-02-14T16:17:21.318Z,17.82
2019-02-14T16:19:50.964Z,16.87
2019-02-14T16:22:29.662Z,12.80
2019-02-14T16:24:52.001Z,17.12
2019-02-14T16:27:22.528Z,14.98
2019-02-14T16:30:02.049Z,14.07
2019-02-14T16:32:32.570Z,16.10
2019-02-14T16:35:02.208Z,19.00
2019-02-14T16:37:31.918Z,15.38
2019-02-14T16:40:01.553Z,12.95
2019-02-14T16:42:32.181Z,13.83
2019-02-14T16:45:02.119Z,14.35
2019-02-14T16:47:32.825Z,14.00
2019-02-14T16:50:06.222Z,12.20
2019-02-14T16:52:35.871Z,15.20
2019-02-14T16:55:05.954Z,13.53
2019-02-14T16:57:35.748Z,9.95
2019-02-14T17:00:06.861Z,14.60
2019-02-14T17:02:36.497Z,13.75
2019-02-14T17:05:07.568Z,14.75
2019-02-14T17:07:38.822Z,12.58
2019-02-14T17:10:10.036Z,14.33
2019-02-14T17:12:39.706Z,11.65
2019-02-14T17:15:10.054Z,11.88
2019-02-14T17:17:42.606Z,10.68
2019-02-14T17:20:12.241Z,10.00
2019-02-14T17:22:41.954Z,8.95
2019-02-14T17:25:11.592Z,11.20
2019-02-14T17:27:41.210Z,10.68
2019-02-14T17:30:10.997Z,10.32
2019-02-14T17:32:40.612Z,9.53
2019-02-14T17:35:10.299Z,8.88
2019-02-14T17:37:41.267Z,10.40
2019-02-14T17:40:10.978Z,9.63
2019-02-14T17:42:40.616Z,8.70
2019-02-14T17:45:10.699Z,9.08
2019-02-14T17:47:40.320Z,7.60
2019-02-14T17:50:10.111Z,9.05
2019-02-14T17:52:39.755Z,6.90
2019-02-14T17:55:09.499Z,8.30
2019-02-14T17:57:41.348Z,9.48
2019-02-14T18:00:12.865Z,9.43
2019-02-14T18:02:42.508Z,8.75
2019-02-14T18:05:12.157Z,7.17
2019-02-14T18:07:41.866Z,9.50
2019-02-14T18:10:14.356Z,10.50
2019-02-14T18:12:43.979Z,7.60
2019-02-14T18:15:13.762Z,7.80
2019-02-14T18:17:43.376Z,6.67
2019-02-14T18:20:13.987Z,9.45
2019-02-14T18:22:43.762Z,7.60
2019-02-14T18:25:13.570Z,9.83
2019-02-14T18:27:43.210Z,7.83
2019-02-14T18:30:13.014Z,5.70
2019-02-14T18:32:42.687Z,7.97
2019-02-14T18:35:12.469Z,7.67
2019-02-14T18:37:42.153Z,8.25
2019-02-14T18:40:11.848Z,9.38
2019-02-14T18:42:50.437Z,7.17
2019-02-14T18:45:20.071Z,5.80
2019-02-14T18:47:50.700Z,7.95
2019-02-14T18:50:21.624Z,8.50
2019-02-14T18:52:51.240Z,6.75
2019-02-14T18:55:21.134Z,7.58
2019-02-14T18:57:50.819Z,8.15
2019-02-14T19:00:20.472Z,7.85
2019-02-14T19:02:50.089Z,5.90
2019-02-14T19:05:20.686Z,6.92
2019-02-14T19:07:51.304Z,6.92
2019-02-14T19:10:20.927Z,6.37
2019-02-14T19:12:50.598Z,6.55
2019-02-14T19:15:20.280Z,5.85
2019-02-14T19:17:50.865Z,8.00
2019-02-14T19:20:20.496Z,7.10
2019-02-14T19:22:50.258Z,6.08
2019-02-14T19:25:19.884Z,6.62
2019-02-14T19:27:49.509Z,6.30
2019-02-14T19:30:19.158Z,7.53
2019-02-14T19:32:48.877Z,6.05
2019-02-14T19:35:23.102Z,5.33
2019-02-14T19:37:49.919Z,6.03
2019-02-14T19:40:19.525Z,5.12
2019-02-14T19:42:49.144Z,6.53
2019-02-14T19:45:20.036Z,4.00
2019-02-14T19:47:49.648Z,5.22
2019-02-14T19:50:19.268Z,5.33
2019-02-14T19:52:48.868Z,5.33
2019-02-14T19:55:18.486Z,5.92
2019-02-14T19:57:48.093Z,4.50
2019-02-14T20:00:17.704Z,5.37
2019-02-14T20:02:47.343Z,5.40
2019-02-14T20:05:16.948Z,5.30
2019-02-14T20:07:46.561Z,5.83
2019-02-14T20:10:16.276Z,5.42
2019-02-14T20:12:45.880Z,5.70
2019-02-14T20:15:15.746Z,6.30
2019-02-14T20:17:45.367Z,5.95
2019-02-14T20:20:15.089Z,5.87
2019-02-14T20:22:44.831Z,7.15
2019-02-14T20:25:15.323Z,5.17
2019-02-14T20:27:44.935Z,6.03
2019-02-14T20:30:14.553Z,6.28
2019-02-14T20:32:44.174Z,7.70
2019-02-14T20:35:13.803Z,5.90
2019-02-14T20:37:43.416Z,4.85
2019-02-14T20:40:13.047Z,5.78
2019-02-14T20:42:42.686Z,5.85
2019-02-14T20:45:12.782Z,5.33
2019-02-14T20:47:42.553Z,4.22
2019-02-14T20:50:12.590Z,4.87
2019-02-14T20:52:42.280Z,5.10
2019-02-14T20:55:13.545Z,6.95
2019-02-14T20:57:43.172Z,5.08
2019-02-14T21:00:22.647Z,5.33
2019-02-14T21:02:53.458Z,4.30
2019-02-14T21:05:23.138Z,3.98
2019-02-14T21:07:52.873Z,5.00
2019-02-14T21:10:22.582Z,4.62
2019-02-14T21:12:53.187Z,3.83
2019-02-14T21:15:22.809Z,4.65
2019-02-14T21:17:52.440Z,5.58
2019-02-14T21:20:22.074Z,3.72
2019-02-14T21:22:52.836Z,3.90
2019-02-14T21:25:23.974Z,5.80
2019-02-14T21:27:53.902Z,4.60
2019-02-14T21:30:23.561Z,4.92
2019-02-14T21:32:53.223Z,6.40
2019-02-14T21:35:28.338Z,4.62
2019-02-14T21:37:57.980Z,4.33
2019-02-14T21:40:27.634Z,3.42
2019-02-14T21:42:57.297Z,5.55
2019-02-14T21:45:26.927Z,4.10
2019-02-14T21:47:56.643Z,5.85
2019-02-14T21:50:26.361Z,4.30
2019-02-14T21:52:56.039Z,5.25
2019-02-14T21:55:34.653Z,3.90
2019-02-14T21:58:05.471Z,3.50
2019-02-14T22:00:35.674Z,4.40
2019-02-14T22:03:05.359Z,5.85
2019-02-14T22:05:34.991Z,3.60
2019-02-14T22:08:04.756Z,5.65
2019-02-14T22:10:34.452Z,4.20
2019-02-14T22:13:04.074Z,4.72
2019-02-14T22:15:33.697Z,5.97
2019-02-14T22:18:03.328Z,4.17
2019-02-14T22:20:33.014Z,6.08
2019-02-14T22:23:02.642Z,4.67
2019-02-14T22:25:32.262Z,5.20
2019-02-14T22:28:04.912Z,4.90
2019-02-14T22:30:35.597Z,5.53
2019-02-14T22:33:05.242Z,5.90
2019-02-14T22:35:34.908Z,5.00
2019-02-14T22:38:04.534Z,5.67
2019-02-14T22:40:34.143Z,4.00
2019-02-14T22:43:06.167Z,6.15
2019-02-14T22:45:38.787Z,4.75
2019-02-14T22:48:08.505Z,5.35
2019-02-14T22:50:39.477Z,4.25
2019-02-14T22:53:09.112Z,4.35
2019-02-14T22:55:41.562Z,3.83
2019-02-14T22:58:13.366Z,4.95
2019-02-14T23:00:47.342Z,3.90
2019-02-14T23:03:17.106Z,5.15
2019-02-14T23:05:46.734Z,4.95
2019-02-14T23:08:16.370Z,4.53
2019-02-14T23:10:47.437Z,4.42
2019-02-14T23:13:17.078Z,3.77
2019-02-14T23:15:46.714Z,4.60
2019-02-14T23:18:16.338Z,4.25
2019-02-14T23:20:46.045Z,5.08
2019-02-14T23:23:15.670Z,4.15
2019-02-14T23:25:46.276Z,6.17
2019-02-14T23:28:15.912Z,4.00
2019-02-14T23:30:45.519Z,4.72
2019-02-14T23:33:18.688Z,3.47
2019-02-14T23:35:49.924Z,5.97
2019-02-14T23:38:19.536Z,3.42
2019-02-14T23:40:49.186Z,4.95
2019-02-14T23:43:18.795Z,4.60
2019-02-14T23:45:48.569Z,5.95
2019-02-14T23:48:18.190Z,3.83
2019-02-14T23:50:47.830Z,5.05
2019-02-14T23:53:17.448Z,4.35
2019-02-14T23:55:47.063Z,3.83
2019-02-14T23:58:18.289Z,4.17
